메인 페이지
METAR-TAF:

METAR-TAF

공항 :

위치토, 캔자스, 미국

위도: 37-38-50N, 경도: 097-25-46W, 고도: 406m

현재 날씨관측

예보는 31분 전, 00:53시(UTC)에 발표되었습니다.
북북서4kt
온도 12°C
습도 54%
기압 1026 hPa
시정: 16.1km
고도 4000ft 상공 구름 조금

METAR: KICT 260053Z 34004KT 10SM FEW040 12/03 A3029 RMK AO2 SLP259 T01170033

시각: 20:24 (01:24 UTC)

예보

예보는 2 시간 4분 전, 23:20시(UTC)에 발표되었습니다.
예보 대상 시간: 26일 00시부터 26일 24시까지 (UTC)
북북동5kt
시정: 10km
고도 3500ft 상공 구름 많음
26일 0200시부터 (UTC)
북동4kt
시정: 10km
고도 8000ft 상공 구름 보통
26일 1200시부터 (UTC)
남동4kt
시정: 10km
고도 12000ft 상공 구름 보통
26일 1800시부터 (UTC)
8kt
시정: 10km
고도 13000ft 상공 구름 보통

TAF: KICT 252320Z 2600/2624 02005KT P6SM BKN035 FM260200 04004KT P6SM SCT080 FM261200 14004KT P6SM SCT120 FM261800 17008KT P6SM SCT130

4,000개 이상의 공항 관측 자료 및 예보 (METAR 및 TAF 보고).

지도상에서 검색 가능한 기상관측소가 노란 점과 빨간 점으로 표시되어 있습니다.

기상관측소 명을 보려면 표시 위로 마우스를 이동하세요.

날씨 관측과 예보를 보려면 클릭하세요.

지도 변경 : 확대하려면 엑스 표시가 있는 녹색 버튼, 축소하려면 빼기 표시가 있는 녹색 버튼, 다음 페이지의 지도를 보려면 녹색 화살표를 클릭하세요.


METAR-TAF: